Time;durP1;ratioP1;P1;durP2;ratioP2;P2;SDS_P1;SDS_P2;PMS_P1;PMS_P2;Temp;Humidity;BMP_temperature;BMP_pressure;BME280_temperature;BME280_humidity;BME280_pressure;Samples;Min_cycle;Max_cycle;Signal;HPM_P1;HPM_P2
2021/07/11 00:01:19;;;;;;;1.77;1.63;;;16.60;99.90;;;;;;5077140;28;20173;-79
2021/07/11 00:03:45;;;;;;;4.03;1.70;;;16.50;99.90;;;;;;5075479;28;20187;-78
2021/07/11 00:06:11;;;;;;;3.07;1.83;;;16.60;99.90;;;;;;5075501;28;20201;-77
2021/07/11 00:08:36;;;;;;;1.40;1.30;;;16.60;99.90;;;;;;5077765;28;20177;-79
2021/07/11 00:11:02;;;;;;;1.57;1.47;;;16.50;99.90;;;;;;5059324;28;20177;-79
2021/07/11 00:13:28;;;;;;;2.87;1.40;;;16.60;99.90;;;;;;5058771;28;20192;-79
2021/07/11 00:15:54;;;;;;;1.83;1.40;;;16.50;99.90;;;;;;5074555;28;20231;-79
2021/07/11 00:18:19;;;;;;;4.93;1.80;;;16.30;99.90;;;;;;5076597;28;20191;-79
2021/07/11 00:20:46;;;;;;;2.17;1.97;;;16.30;99.90;;;;;;5076023;28;20200;-79
2021/07/11 00:23:11;;;;;;;1.60;1.50;;;16.20;99.90;;;;;;5077975;28;20211;-79
2021/07/11 00:25:37;;;;;;;1.87;1.67;;;16.20;99.90;;;;;;5056386;28;20223;-79
2021/07/11 00:28:03;;;;;;;2.23;1.80;;;16.10;99.90;;;;;;5077349;28;20235;-79
2021/07/11 00:30:29;;;;;;;1.63;1.53;;;16.20;99.90;;;;;;5058443;28;20171;-79
2021/07/11 00:32:55;;;;;;;2.27;2.07;;;16.10;99.90;;;;;;5052871;28;20176;-79
2021/07/11 00:35:21;;;;;;;1.97;1.60;;;16.00;99.90;;;;;;5075998;28;20206;-79
2021/07/11 00:37:47;;;;;;;1.70;1.60;;;16.00;99.90;;;;;;5074787;28;20674;-79
2021/07/11 00:40:13;;;;;;;6.03;1.50;;;16.10;99.90;;;;;;5056341;28;20172;-79
2021/07/11 00:42:40;;;;;;;1.90;1.80;;;16.30;99.90;;;;;;5059622;28;20179;-79
2021/07/11 00:45:08;;;;;;;4.23;1.90;;;16.40;99.90;;;;;;5075003;28;20196;-78
2021/07/11 00:47:44;;;;;;;3.03;2.27;;;16.40;99.90;;;;;;5075163;28;20190;-79
2021/07/11 00:50:12;;;;;;;4.73;2.50;;;16.40;99.90;;;;;;5076200;28;20245;-78
2021/07/11 00:52:39;;;;;;;2.53;2.33;;;16.40;99.90;;;;;;5077959;28;20183;-78
2021/07/11 00:55:06;;;;;;;2.37;1.70;;;16.20;99.90;;;;;;5060048;28;20286;-79
2021/07/11 00:57:32;;;;;;;4.13;2.67;;;16.10;99.90;;;;;;5079599;28;20203;-79
2021/07/11 00:59:58;;;;;;;2.93;2.43;;;16.20;99.90;;;;;;5075217;28;20187;-79
2021/07/11 01:03:00;;;;;;;3.00;2.47;;;16.20;99.90;;;;;;5074147;28;20185;-79
2021/07/11 01:05:28;;;;;;;5.03;2.60;;;16.20;99.90;;;;;;5070416;28;20675;-79
2021/07/11 01:08:09;;;;;;;3.50;2.40;;;16.00;99.90;;;;;;5076220;28;20211;-79
2021/07/11 01:10:46;;;;;;;5.43;2.50;;;16.20;99.90;;;;;;5058252;28;20174;-79
2021/07/11 01:13:14;;;;;;;3.87;2.63;;;16.30;99.90;;;;;;5076450;28;20172;-79
2021/07/11 01:15:45;;;;;;;2.80;2.50;;;16.40;99.90;;;;;;5074663;28;20250;-78
2021/07/11 01:18:12;;;;;;;3.03;2.73;;;16.40;99.90;;;;;;5075213;28;20508;-79
2021/07/11 01:20:46;;;;;;;4.07;1.93;;;16.40;99.90;;;;;;5055150;28;20176;-79
2021/07/11 01:23:37;;;;;;;2.40;2.20;;;16.10;99.90;;;;;;5076090;28;20188;-79
2021/07/11 01:26:06;;;;;;;2.57;2.20;;;16.30;99.90;;;;;;5028041;28;20270;-78
2021/07/11 01:28:31;;;;;;;2.17;1.97;;;16.30;99.90;;;;;;5076426;28;20663;-78
2021/07/11 01:30:58;;;;;;;2.00;1.90;;;16.50;99.90;;;;;;5076388;28;20173;-79
2021/07/11 01:33:27;;;;;;;2.43;1.73;;;16.50;99.90;;;;;;5074662;28;20173;-78
2021/07/11 01:35:53;;;;;;;5.17;2.17;;;16.40;99.90;;;;;;5073111;28;20200;-78
2021/07/11 01:38:21;;;;;;;2.93;2.00;;;16.30;99.90;;;;;;5058176;28;20292;-79
2021/07/11 01:40:49;;;;;;;2.00;1.80;;;16.30;99.90;;;;;;5074795;28;20255;-78
2021/07/11 01:43:18;;;;;;;3.40;2.27;;;16.30;99.90;;;;;;5077762;28;20176;-79
2021/07/11 01:45:46;;;;;;;2.00;1.80;;;16.20;99.90;;;;;;5073380;28;20310;-79
2021/07/11 01:48:12;;;;;;;2.13;1.40;;;16.30;99.90;;;;;;5072325;28;20167;-78
2021/07/11 01:50:38;;;;;;;1.60;1.40;;;16.20;99.90;;;;;;5075270;28;20181;-79
2021/07/11 01:53:04;;;;;;;2.17;1.40;;;16.10;99.90;;;;;;5057046;28;20545;-79
2021/07/11 01:55:30;;;;;;;2.27;1.70;;;16.00;99.90;;;;;;5057425;28;20313;-78
2021/07/11 01:57:56;;;;;;;2.00;1.23;;;16.10;99.90;;;;;;5047425;28;20177;-79
2021/07/11 02:00:23;;;;;;;1.30;1.20;;;16.10;99.90;;;;;;5056197;28;20175;-78
2021/07/11 02:02:49;;;;;;;4.17;1.47;;;16.20;99.90;;;;;;5074598;28;20189;-78
2021/07/11 02:05:16;;;;;;;2.37;1.47;;;16.20;99.90;;;;;;5072975;28;20715;-79
2021/07/11 02:07:42;;;;;;;1.80;1.70;;;16.30;99.90;;;;;;5056552;28;20169;-79
2021/07/11 02:10:11;;;;;;;2.17;1.50;;;16.30;99.90;;;;;;5056923;28;20229;-78
2021/07/11 02:13:00;;;;;;;1.50;1.40;;;16.30;99.90;;;;;;5068834;28;20183;-79
2021/07/11 02:15:29;;;;;;;2.07;1.50;;;16.40;99.90;;;;;;5060054;28;20333;-79
2021/07/11 02:17:57;;;;;;;2.60;1.80;;;16.40;99.90;;;;;;5048563;28;20173;-79
2021/07/11 02:20:24;;;;;;;2.00;1.40;;;16.40;99.90;;;;;;5070925;28;20192;-79
2021/07/11 02:22:50;;;;;;;2.83;1.20;;;16.30;99.90;;;;;;5053695;28;20191;-79
2021/07/11 02:25:18;;;;;;;1.70;1.60;;;16.20;99.90;;;;;;5060570;28;20563;-78
2021/07/11 02:27:49;;;;;;;3.20;1.83;;;16.30;99.90;;;;;;5069264;28;20182;-79
2021/07/11 02:30:17;;;;;;;2.30;1.90;;;16.30;99.90;;;;;;5071483;28;20249;-79
2021/07/11 02:32:51;;;;;;;1.47;1.37;;;16.20;99.90;;;;;;5072261;28;20168;-79
2021/07/11 02:35:27;;;;;;;4.67;1.60;;;16.30;99.90;;;;;;5065875;28;20215;-79
2021/07/11 02:37:53;;;;;;;2.60;1.63;;;16.20;99.90;;;;;;5067533;28;20164;-78
2021/07/11 02:40:19;;;;;;;1.67;1.40;;;16.10;99.90;;;;;;5054584;28;20177;-79
2021/07/11 02:42:47;;;;;;;1.60;1.50;;;16.20;99.90;;;;;;5052480;28;20264;-80
2021/07/11 02:45:13;;;;;;;1.80;1.70;;;16.20;99.90;;;;;;5068686;28;20560;-79
2021/07/11 02:47:44;;;;;;;2.13;1.87;;;16.30;99.90;;;;;;5050809;28;20207;-79
2021/07/11 02:50:13;;;;;;;2.77;1.53;;;16.30;99.90;;;;;;5071744;28;20210;-79
2021/07/11 02:52:43;;;;;;;1.77;1.43;;;16.30;99.90;;;;;;5057890;28;20179;-78
2021/07/11 02:55:16;;;;;;;2.83;1.57;;;16.20;99.90;;;;;;5075638;28;20202;-79
2021/07/11 02:57:46;;;;;;;3.17;2.00;;;16.10;99.90;;;;;;5077315;28;20163;-78
2021/07/11 03:00:12;;;;;;;3.27;1.60;;;16.20;99.90;;;;;;5059260;28;20178;-79
2021/07/11 03:02:40;;;;;;;2.03;1.60;;;16.20;99.90;;;;;;5069808;28;20535;-79
2021/07/11 03:05:08;;;;;;;3.07;1.67;;;16.10;99.90;;;;;;5073694;28;20213;-79
2021/07/11 03:07:34;;;;;;;2.03;1.70;;;16.00;99.90;;;;;;5074729;28;20766;-79
2021/07/11 03:10:00;;;;;;;3.10;1.50;;;16.10;99.90;;;;;;5076018;28;20187;-79
2021/07/11 03:12:26;;;;;;;1.90;1.73;;;16.20;99.90;;;;;;5075402;28;20250;-79
2021/07/11 03:14:53;;;;;;;1.80;1.60;;;16.20;99.90;;;;;;5077887;28;20189;-79
2021/07/11 03:17:22;;;;;;;2.17;1.93;;;16.20;99.90;;;;;;5077442;28;20175;-79
2021/07/11 03:19:51;;;;;;;2.00;1.80;;;16.20;99.90;;;;;;5076316;28;20238;-79
2021/07/11 03:22:22;;;;;;;2.07;1.87;;;16.10;99.90;;;;;;5056186;28;20178;-79
2021/07/11 03:24:49;;;;;;;3.50;2.07;;;16.10;99.90;;;;;;5076194;28;20209;-79
2021/07/11 03:27:17;;;;;;;1.70;1.60;;;16.00;99.90;;;;;;5073995;28;20198;-79
2021/07/11 03:29:53;;;;;;;3.60;1.67;;;16.10;99.90;;;;;;5076374;28;20173;-79
2021/07/11 03:32:21;;;;;;;3.90;1.60;;;16.10;99.90;;;;;;5057496;28;20652;-78
2021/07/11 03:34:48;;;;;;;1.90;1.70;;;16.20;99.90;;;;;;5077284;28;20198;-79
2021/07/11 03:37:14;;;;;;;2.20;1.50;;;16.20;99.90;;;;;;5077392;28;20724;-78
2021/07/11 03:39:44;;;;;;;2.00;1.80;;;16.20;99.90;;;;;;5071860;28;20182;-79
2021/07/11 03:42:11;;;;;;;1.73;1.53;;;16.10;99.90;;;;;;5061092;28;20293;-79
2021/07/11 03:44:40;;;;;;;2.87;1.37;;;16.00;99.90;;;;;;5067469;28;20199;-78
2021/07/11 03:47:09;;;;;;;3.80;1.30;;;15.90;99.90;;;;;;5076062;28;20206;-79
2021/07/11 03:49:37;;;;;;;2.00;1.80;;;15.80;99.90;;;;;;5068342;28;20185;-79
2021/07/11 03:52:05;;;;;;;1.50;1.40;;;15.80;99.90;;;;;;5075413;28;20227;-79
2021/07/11 03:56:56;;;;;;;4.07;1.97;;;15.80;99.90;;;;;;5074672;22;20286;-77
2021/07/11 03:59:23;;;;;;;2.03;1.50;;;15.70;99.90;;;;;;5037960;28;20184;-76
2021/07/11 04:01:49;;;;;;;3.17;1.80;;;15.90;99.90;;;;;;5047445;28;20172;-77
2021/07/11 04:04:19;;;;;;;2.90;1.53;;;15.80;99.90;;;;;;5050589;28;20177;-76
2021/07/11 04:06:47;;;;;;;4.10;1.73;;;15.90;99.90;;;;;;5034189;28;20203;-76
2021/07/11 04:09:18;;;;;;;4.30;1.80;;;15.90;99.90;;;;;;5017091;28;20171;-75
2021/07/11 04:11:44;;;;;;;1.60;1.50;;;16.00;99.90;;;;;;5035236;28;20188;-76
2021/07/11 04:14:13;;;;;;;1.97;1.77;;;16.00;99.90;;;;;;5019069;28;20171;-76
2021/07/11 04:16:39;;;;;;;1.50;1.40;;;16.00;99.90;;;;;;5035549;28;20196;-77
2021/07/11 04:19:05;;;;;;;2.47;1.70;;;15.90;99.90;;;;;;5035966;28;20687;-76
2021/07/11 04:21:33;;;;;;;2.50;1.57;;;15.90;99.90;;;;;;5035364;28;20257;-76
2021/07/11 04:23:59;;;;;;;1.77;1.43;;;16.00;99.90;;;;;;5034283;28;20204;-76
2021/07/11 04:26:32;;;;;;;2.83;1.60;;;16.00;99.90;;;;;;5035844;28;20285;-76
2021/07/11 04:28:58;;;;;;;3.60;1.70;;;16.00;99.90;;;;;;5021935;28;20201;-77
2021/07/11 04:31:23;;;;;;;1.83;1.67;;;16.00;99.90;;;;;;5052168;28;20598;-76
2021/07/11 04:33:49;;;;;;;2.83;1.50;;;16.00;99.90;;;;;;5049347;28;20193;-76
2021/07/11 04:36:15;;;;;;;1.97;1.77;;;16.00;99.90;;;;;;5052453;28;20284;-77
2021/07/11 04:38:41;;;;;;;1.70;1.60;;;16.00;99.90;;;;;;5026214;28;20246;-77
2021/07/11 04:41:09;;;;;;;1.97;1.70;;;15.80;99.90;;;;;;5039030;28;20194;-78
2021/07/11 04:43:35;;;;;;;2.80;1.67;;;16.00;99.90;;;;;;5032957;28;20175;-77
2021/07/11 04:46:01;;;;;;;2.43;1.33;;;16.00;99.90;;;;;;5032339;28;20209;-76
2021/07/11 04:48:27;;;;;;;2.03;1.13;;;16.10;99.90;;;;;;5015397;28;20178;-77
2021/07/11 04:50:53;;;;;;;1.70;1.53;;;16.10;99.90;;;;;;5036608;28;20300;-76
2021/07/11 04:53:18;;;;;;;1.90;1.37;;;15.90;99.90;;;;;;5035055;28;20238;-77
2021/07/11 04:55:45;;;;;;;1.60;1.40;;;15.80;99.90;;;;;;5034963;28;20674;-76
2021/07/11 04:58:12;;;;;;;2.70;1.47;;;15.70;99.90;;;;;;5035072;28;20184;-77
2021/07/11 05:00:39;;;;;;;2.30;1.20;;;15.80;99.90;;;;;;5014606;28;20599;-77
2021/07/11 05:03:05;;;;;;;1.50;1.40;;;15.80;99.90;;;;;;5031799;28;20210;-76
2021/07/11 05:05:30;;;;;;;1.90;1.70;;;15.70;99.90;;;;;;5033459;28;20667;-78
2021/07/11 05:07:56;;;;;;;1.60;1.50;;;15.90;99.90;;;;;;5015202;28;20202;-76
2021/07/11 05:10:21;;;;;;;1.57;1.47;;;16.00;99.90;;;;;;5015525;28;20265;-76
2021/07/11 05:12:47;;;;;;;2.80;1.60;;;16.00;99.90;;;;;;5014249;28;20173;-77
2021/07/11 05:15:13;;;;;;;2.17;1.60;;;16.00;99.90;;;;;;5032809;28;20273;-75
2021/07/11 05:17:39;;;;;;;1.80;1.60;;;16.00;99.90;;;;;;5015561;28;20202;-77
2021/07/11 05:20:06;;;;;;;1.47;1.37;;;16.10;99.90;;;;;;5032677;28;20188;-77
2021/07/11 05:22:32;;;;;;;2.00;1.80;;;16.10;99.90;;;;;;5032573;28;20250;-73
2021/07/11 05:24:58;;;;;;;1.80;1.70;;;16.10;99.90;;;;;;5032877;28;20679;-77
2021/07/11 05:27:23;;;;;;;3.40;1.70;;;16.20;99.90;;;;;;5031666;28;20209;-76
2021/07/11 05:29:50;;;;;;;3.20;1.80;;;16.20;99.90;;;;;;5040307;28;20186;-76
2021/07/11 05:32:15;;;;;;;1.87;1.77;;;16.20;99.90;;;;;;5021872;28;20177;-76
2021/07/11 05:34:41;;;;;;;3.60;1.53;;;16.30;99.90;;;;;;5022572;28;20524;-77
2021/07/11 05:37:07;;;;;;;2.20;2.00;;;16.30;99.90;;;;;;5040314;28;20247;-77
2021/07/11 05:39:32;;;;;;;2.30;1.53;;;16.20;99.90;;;;;;5033419;28;20174;-76
2021/07/11 05:41:58;;;;;;;1.63;1.50;;;16.00;99.90;;;;;;5033182;28;20178;-78
2021/07/11 05:44:24;;;;;;;3.17;1.80;;;15.90;99.90;;;;;;5014920;28;20178;-76
2021/07/11 05:46:49;;;;;;;4.00;1.67;;;16.00;99.90;;;;;;5013630;28;20582;-77
2021/07/11 05:49:15;;;;;;;2.07;1.60;;;16.00;99.90;;;;;;5013828;28;20177;-77
2021/07/11 05:51:41;;;;;;;2.63;1.67;;;16.10;99.90;;;;;;5014379;28;20224;-76
2021/07/11 05:54:06;;;;;;;3.20;1.60;;;16.20;99.90;;;;;;5032141;28;20233;-76
2021/07/11 05:56:32;;;;;;;1.60;1.43;;;16.30;99.90;;;;;;5013152;28;20704;-77
2021/07/11 05:58:58;;;;;;;1.87;1.60;;;16.30;99.90;;;;;;5032368;28;20170;-76
2021/07/11 06:01:23;;;;;;;3.27;1.90;;;16.30;99.90;;;;;;5032843;28;20645;-78
2021/07/11 06:03:49;;;;;;;2.20;2.00;;;16.50;99.90;;;;;;5014057;28;20178;-76
2021/07/11 06:06:14;;;;;;;2.00;1.80;;;16.20;99.90;;;;;;5031464;28;20256;-75
2021/07/11 06:08:40;;;;;;;2.20;1.80;;;16.30;99.90;;;;;;5032041;28;20257;-77
2021/07/11 06:11:06;;;;;;;2.10;1.80;;;16.30;99.90;;;;;;5032811;28;20182;-76
2021/07/11 06:13:31;;;;;;;2.30;2.10;;;16.20;99.90;;;;;;5031452;28;20186;-78
2021/07/11 06:15:57;;;;;;;1.97;1.87;;;16.30;99.90;;;;;;5013910;28;20684;-76
2021/07/11 06:18:23;;;;;;;2.30;2.10;;;16.40;99.90;;;;;;5014209;28;20261;-77
2021/07/11 06:20:48;;;;;;;2.80;2.07;;;16.60;99.90;;;;;;5031874;28;20179;-77
2021/07/11 06:23:14;;;;;;;2.13;1.93;;;16.60;99.90;;;;;;5027541;28;20186;-77
2021/07/11 06:25:41;;;;;;;1.90;1.80;;;16.60;99.90;;;;;;5027643;28;20220;-76
2021/07/11 06:28:07;;;;;;;3.90;2.00;;;16.70;99.90;;;;;;5032551;28;20186;-77
2021/07/11 06:30:32;;;;;;;2.20;1.97;;;16.70;99.90;;;;;;5014981;28;20174;-76
2021/07/11 06:32:58;;;;;;;5.10;1.80;;;16.50;99.90;;;;;;5031737;28;20166;-75
2021/07/11 06:35:25;;;;;;;5.20;2.00;;;16.50;99.90;;;;;;5033889;28;20260;-76
2021/07/11 06:37:51;;;;;;;3.50;2.03;;;16.40;99.90;;;;;;5028307;28;20171;-74
2021/07/11 06:40:21;;;;;;;2.57;2.37;;;16.50;99.90;;;;;;5032357;28;20167;-75
2021/07/11 06:42:47;;;;;;;3.07;2.43;;;16.70;99.90;;;;;;5032648;28;20652;-76
2021/07/11 06:45:14;;;;;;;4.50;2.10;;;16.90;99.90;;;;;;5015884;28;20637;-75
2021/07/11 06:47:41;;;;;;;2.00;1.80;;;17.00;99.90;;;;;;5015374;28;20182;-75
2021/07/11 06:50:09;;;;;;;2.83;2.00;;;17.00;99.90;;;;;;5033053;28;20265;-76
2021/07/11 06:52:35;;;;;;;4.33;1.80;;;16.90;99.90;;;;;;5015369;28;20198;-75
2021/07/11 06:55:06;;;;;;;3.63;1.97;;;17.00;99.90;;;;;;5032436;28;20214;-76
2021/07/11 06:57:33;;;;;;;3.87;2.40;;;17.10;99.90;;;;;;5014220;28;20190;-77
2021/07/11 06:59:59;;;;;;;2.20;2.00;;;17.20;99.90;;;;;;5008997;28;20189;-77
2021/07/11 07:02:25;;;;;;;2.67;2.47;;;17.20;99.90;;;;;;5028510;28;20640;-77
2021/07/11 07:04:51;;;;;;;2.13;1.93;;;17.30;99.90;;;;;;5032733;28;20193;-77
2021/07/11 07:07:16;;;;;;;1.97;1.77;;;17.30;99.90;;;;;;5014826;28;20248;-76
2021/07/11 07:09:42;;;;;;;1.90;1.60;;;17.20;99.90;;;;;;5032638;28;20186;-77
2021/07/11 07:12:08;;;;;;;4.40;2.23;;;17.20;99.90;;;;;;5032130;28;20261;-76
2021/07/11 07:14:34;;;;;;;3.17;1.70;;;17.30;99.90;;;;;;5017787;28;20189;-76
2021/07/11 07:17:00;;;;;;;2.70;1.83;;;17.40;99.90;;;;;;5018407;28;20240;-76
2021/07/11 07:19:26;;;;;;;2.13;1.80;;;17.40;99.90;;;;;;5035489;28;20182;-77
2021/07/11 07:21:51;;;;;;;2.07;1.87;;;17.60;99.90;;;;;;5017297;28;20188;-76
2021/07/11 07:24:17;;;;;;;2.40;2.20;;;17.60;99.90;;;;;;5034301;28;20189;-75
2021/07/11 07:26:43;;;;;;;2.17;1.97;;;17.70;99.90;;;;;;5034736;28;20636;-79
2021/07/11 07:29:10;;;;;;;2.20;2.00;;;17.60;99.90;;;;;;5034965;28;20204;-76
2021/07/11 07:31:36;;;;;;;1.70;1.60;;;17.50;99.90;;;;;;5035144;28;20179;-77
2021/07/11 07:34:02;;;;;;;2.27;1.80;;;17.60;99.90;;;;;;5018566;28;20189;-76
2021/07/11 07:36:28;;;;;;;2.10;1.90;;;17.70;99.90;;;;;;5034986;28;20582;-77
2021/07/11 07:38:54;;;;;;;3.23;1.80;;;17.70;99.90;;;;;;5035036;28;20214;-77
2021/07/11 07:41:20;;;;;;;2.57;1.73;;;17.70;99.90;;;;;;5035195;28;20183;-76
2021/07/11 07:43:45;;;;;;;3.33;2.30;;;17.70;99.90;;;;;;5034608;28;20649;-77
2021/07/11 07:46:11;;;;;;;2.90;1.70;;;17.80;99.90;;;;;;5034358;28;20217;-76
2021/07/11 07:48:37;;;;;;;1.93;1.60;;;18.00;99.90;;;;;;5016720;28;20185;-76
2021/07/11 07:51:03;;;;;;;2.87;1.80;;;18.20;99.90;;;;;;5031513;28;20182;-74
2021/07/11 07:53:28;;;;;;;6.73;1.87;;;18.40;99.90;;;;;;5034032;28;20645;-76
2021/07/11 07:55:54;;;;;;;2.50;1.93;;;18.40;99.90;;;;;;5017030;28;20313;-76
2021/07/11 07:58:19;;;;;;;1.87;1.63;;;18.50;99.90;;;;;;5035253;28;20186;-82
2021/07/11 08:00:45;;;;;;;2.93;1.90;;;18.60;99.90;;;;;;5040085;28;20185;-84
2021/07/11 08:03:11;;;;;;;5.17;2.13;;;18.60;99.90;;;;;;5022814;28;20213;-83
2021/07/11 08:05:36;;;;;;;1.80;1.70;;;18.60;99.90;;;;;;5039865;28;20229;-82
2021/07/11 08:08:05;;;;;;;2.43;2.23;;;18.60;99.90;;;;;;5040440;28;20190;-84
2021/07/11 08:10:30;;;;;;;1.83;1.73;;;18.70;99.90;;;;;;5022733;28;20186;-84
2021/07/11 08:12:56;;;;;;;2.23;1.73;;;18.80;99.90;;;;;;5038528;28;20182;-82
2021/07/11 08:15:22;;;;;;;2.00;1.80;;;18.90;99.90;;;;;;5021956;28;20194;-82
2021/07/11 08:17:50;;;;;;;1.70;1.60;;;19.10;99.90;;;;;;5021666;28;20675;-83
2021/07/11 08:20:18;;;;;;;1.80;1.60;;;19.00;99.90;;;;;;5040244;28;20652;-82
2021/07/11 08:22:44;;;;;;;3.93;1.60;;;18.90;99.90;;;;;;5039356;28;20178;-82
2021/07/11 08:25:11;;;;;;;1.70;1.60;;;18.90;99.90;;;;;;5040117;28;20211;-82
2021/07/11 08:27:39;;;;;;;2.53;1.80;;;18.90;99.90;;;;;;5021615;28;20197;-83
2021/07/11 08:30:06;;;;;;;1.60;1.43;;;18.80;99.90;;;;;;5021841;28;20170;-82
2021/07/11 08:32:32;;;;;;;1.80;1.70;;;18.90;99.90;;;;;;5038397;28;20197;-81
2021/07/11 08:34:58;;;;;;;1.67;1.33;;;19.00;99.90;;;;;;5018152;28;20665;-82
2021/07/11 08:37:24;;;;;;;1.80;1.70;;;19.30;99.90;;;;;;5022445;28;20179;-83
2021/07/11 08:39:50;;;;;;;1.80;1.50;;;19.30;99.90;;;;;;5023441;28;20186;-82
2021/07/11 08:42:18;;;;;;;1.80;1.60;;;19.20;99.90;;;;;;5040167;28;20182;-83
2021/07/11 08:44:44;;;;;;;1.47;1.37;;;19.30;99.90;;;;;;5021753;28;20179;-82
2021/07/11 08:47:10;;;;;;;1.53;1.43;;;19.30;99.90;;;;;;5023001;28;20285;-82
2021/07/11 08:49:36;;;;;;;1.90;1.70;;;19.40;99.90;;;;;;5040551;28;20205;-83
2021/07/11 08:52:04;;;;;;;2.40;1.70;;;19.40;99.90;;;;;;5040329;28;20170;-83
2021/07/11 08:54:30;;;;;;;1.90;1.80;;;19.60;99.90;;;;;;5038748;28;20237;-84
2021/07/11 08:57:00;;;;;;;1.80;1.70;;;19.60;99.90;;;;;;5022712;28;20218;-84
2021/07/11 08:59:27;;;;;;;1.90;1.70;;;19.80;99.90;;;;;;5041642;28;20190;-84
2021/07/11 09:01:54;;;;;;;1.77;1.67;;;19.90;99.90;;;;;;5038916;28;20186;-84
2021/07/11 09:04:20;;;;;;;2.37;1.73;;;20.00;99.90;;;;;;5040835;28;20233;-82
2021/07/11 09:06:49;;;;;;;2.13;1.87;;;20.10;99.90;;;;;;5040501;28;20202;-81
2021/07/11 09:09:27;;;;;;;3.07;1.47;;;20.20;99.90;;;;;;5036884;28;20240;-83
2021/07/11 09:12:03;;;;;;;1.70;1.60;;;20.40;99.90;;;;;;5019646;28;20174;-84
2021/07/11 09:14:31;;;;;;;1.83;1.70;;;20.30;99.90;;;;;;5021909;28;20554;-83
2021/07/11 09:16:59;;;;;;;1.70;1.40;;;20.50;99.90;;;;;;5040757;28;20316;-84
2021/07/11 09:19:28;;;;;;;1.87;1.47;;;20.60;99.90;;;;;;5039948;28;20683;-83
2021/07/11 09:22:00;;;;;;;1.40;1.30;;;20.50;99.90;;;;;;5021641;28;20197;-83
2021/07/11 09:24:27;;;;;;;1.70;1.60;;;20.40;99.90;;;;;;5022637;28;20185;-83
2021/07/11 09:26:55;;;;;;;1.63;1.43;;;20.70;99.90;;;;;;5041442;28;20202;-84
2021/07/11 09:29:28;;;;;;;4.30;1.40;;;20.70;99.90;;;;;;5039269;28;20175;-82
2021/07/11 09:31:54;;;;;;;3.10;1.40;;;20.90;99.90;;;;;;5017845;28;20242;-83
2021/07/11 09:34:24;;;;;;;1.57;1.30;;;20.90;99.90;;;;;;5020649;28;20202;-82
2021/07/11 09:37:11;;;;;;;1.93;1.10;;;21.00;99.90;;;;;;5035999;28;20273;-82
2021/07/11 09:39:55;;;;;;;1.30;1.20;;;21.10;99.90;;;;;;5034018;28;20178;-83
2021/07/11 09:42:41;;;;;;;1.20;1.07;;;21.20;99.90;;;;;;5019628;28;20660;-84
2021/07/11 09:45:17;;;;;;;1.33;1.20;;;21.20;99.90;;;;;;5039246;28;20277;-83
2021/07/11 09:47:43;;;;;;;1.37;1.23;;;21.30;99.90;;;;;;5022492;28;20194;-82
2021/07/11 09:50:21;;;;;;;1.23;1.13;;;21.20;99.90;;;;;;5020781;28;20179;-84
2021/07/11 09:52:52;;;;;;;1.20;1.10;;;21.40;99.90;;;;;;5039478;28;20174;-83
2021/07/11 09:58:02;;;;;;;3.00;1.40;;;21.50;99.90;;;;;;5077878;22;20238;-79
2021/07/11 10:00:34;;;;;;;3.43;1.73;;;21.40;99.90;;;;;;5022132;28;20261;-78
2021/07/11 10:03:03;;;;;;;2.33;1.37;;;21.10;99.90;;;;;;5039317;28;20208;-78
2021/07/11 10:05:30;;;;;;;2.07;1.77;;;20.80;99.90;;;;;;5022670;28;20556;-81
2021/07/11 10:07:57;;;;;;;1.87;1.37;;;20.90;99.90;;;;;;5022615;28;20178;-79
2021/07/11 10:10:28;;;;;;;1.20;1.03;;;21.00;99.90;;;;;;5042003;28;20171;-78
2021/07/11 10:12:55;;;;;;;1.83;1.27;;;21.10;99.90;;;;;;5018919;28;20596;-78
2021/07/11 10:15:24;;;;;;;1.47;1.37;;;21.00;99.90;;;;;;5040190;28;20166;-78
2021/07/11 10:18:05;;;;;;;2.00;1.70;;;21.10;99.90;;;;;;5015264;28;20252;-79
2021/07/11 10:20:34;;;;;;;2.13;1.63;;;21.10;99.90;;;;;;5034269;28;20182;-77
2021/07/11 10:23:01;;;;;;;1.50;1.40;;;21.20;99.90;;;;;;5012196;28;20178;-79
2021/07/11 10:25:28;;;;;;;6.20;1.33;;;21.30;99.90;;;;;;5014363;28;20265;-81
2021/07/11 10:28:14;;;;;;;1.20;1.10;;;21.50;99.90;;;;;;5040203;28;20252;-81
2021/07/11 10:30:43;;;;;;;1.10;1.00;;;21.70;99.90;;;;;;5037791;28;20263;-80
2021/07/11 10:33:14;;;;;;;0.90;0.87;;;21.70;99.90;;;;;;5018200;28;20241;-78
2021/07/11 10:35:54;;;;;;;1.00;0.90;;;21.90;99.90;;;;;;5016747;28;20265;-79
2021/07/11 10:38:49;;;;;;;1.03;0.80;;;22.10;99.90;;;;;;5029925;28;20174;-80
2021/07/11 10:41:26;;;;;;;2.80;1.10;;;22.10;99.90;;;;;;5035665;28;20182;-81
2021/07/11 10:44:12;;;;;;;1.00;0.90;;;22.10;99.90;;;;;;5019490;28;20187;-78
2021/07/11 10:46:59;;;;;;;1.23;1.10;;;22.20;99.90;;;;;;5037340;28;20297;-78
2021/07/11 10:49:28;;;;;;;1.50;0.70;;;22.40;99.90;;;;;;5021649;28;20174;-78
2021/07/11 10:51:56;;;;;;;0.93;0.90;;;22.40;99.90;;;;;;5022216;28;20183;-80
2021/07/11 10:54:29;;;;;;;0.93;0.90;;;22.60;99.90;;;;;;5037886;28;20233;-77
2021/07/11 10:57:00;;;;;;;1.20;1.00;;;22.50;99.90;;;;;;5036752;28;20221;-78
2021/07/11 10:59:37;;;;;;;1.30;0.73;;;22.60;99.90;;;;;;5037763;28;20201;-78
2021/07/11 11:02:25;;;;;;;1.57;1.00;;;22.20;99.90;;;;;;5036218;28;20185;-78
2021/07/11 11:05:03;;;;;;;1.10;0.97;;;22.20;99.90;;;;;;5017982;28;20205;-81
2021/07/11 11:08:10;;;;;;;1.40;1.10;;;22.10;99.90;;;;;;5037224;28;20210;-78
2021/07/11 11:10:38;;;;;;;1.70;1.40;;;22.10;99.90;;;;;;4947426;28;20177;-78
2021/07/11 11:13:09;;;;;;;1.33;1.20;;;21.80;99.90;;;;;;5026583;28;20197;-78
2021/07/11 11:15:40;;;;;;;1.93;1.10;;;21.80;99.90;;;;;;5039665;28;20680;-79
2021/07/11 11:18:18;;;;;;;1.37;1.27;;;21.60;99.90;;;;;;5039641;28;20178;-78
2021/07/11 11:20:52;;;;;;;1.17;1.07;;;21.50;99.90;;;;;;5040286;28;20309;-78
2021/07/11 11:23:18;;;;;;;2.13;1.60;;;21.40;99.90;;;;;;5020720;28;20171;-78
2021/07/11 11:25:45;;;;;;;1.40;1.20;;;21.20;99.90;;;;;;5036006;28;20669;-78
2021/07/11 11:28:12;;;;;;;1.03;0.90;;;21.00;99.90;;;;;;5040799;28;20229;-80
2021/07/11 11:30:39;;;;;;;1.63;1.30;;;20.90;99.90;;;;;;5020619;28;20171;-78
2021/07/11 11:33:05;;;;;;;1.30;1.20;;;20.90;99.90;;;;;;5037570;28;20269;-77
2021/07/11 11:35:33;;;;;;;1.07;0.93;;;20.90;99.90;;;;;;5036412;28;20198;-78
2021/07/11 11:38:02;;;;;;;0.80;0.80;;;20.80;99.90;;;;;;5038443;28;20578;-77
2021/07/11 11:40:31;;;;;;;1.10;0.90;;;20.80;99.90;;;;;;5033585;28;20676;-79
2021/07/11 11:42:59;;;;;;;1.27;0.93;;;20.70;99.90;;;;;;5035870;28;20520;-78
2021/07/11 11:45:29;;;;;;;0.83;0.80;;;20.70;99.90;;;;;;5017916;28;20179;-79
2021/07/11 11:48:13;;;;;;;0.97;0.73;;;20.60;99.90;;;;;;5034590;28;20720;-78
2021/07/11 11:50:41;;;;;;;1.10;0.70;;;20.70;99.90;;;;;;5017919;28;20170;-78
2021/07/11 11:53:13;;;;;;;0.90;0.60;;;20.70;99.90;;;;;;5013601;28;20186;-77
2021/07/11 11:55:46;;;;;;;2.10;0.60;;;20.70;99.90;;;;;;5014787;28;20166;-77
2021/07/11 11:58:11;;;;;;;0.60;0.60;;;20.90;99.90;;;;;;5013432;28;20183;-77
2021/07/11 12:00:37;;;;;;;0.90;0.90;;;20.90;99.90;;;;;;5015863;28;20174;-78
2021/07/11 12:03:07;;;;;;;0.73;0.60;;;21.00;99.90;;;;;;5033970;28;20171;-77
2021/07/11 12:05:35;;;;;;;0.60;0.60;;;21.20;99.90;;;;;;5034047;28;20171;-80
2021/07/11 12:08:02;;;;;;;1.17;0.70;;;21.20;99.90;;;;;;5016746;28;20166;-77
2021/07/11 12:10:29;;;;;;;0.87;0.87;;;21.20;99.90;;;;;;5033325;28;20186;-77
2021/07/11 12:13:03;;;;;;;1.93;1.00;;;21.30;99.90;;;;;;5034437;28;20291;-78
2021/07/11 12:15:35;;;;;;;1.63;0.77;;;21.50;99.90;;;;;;5033183;28;20304;-78
2021/07/11 12:18:02;;;;;;;0.90;0.63;;;21.40;99.90;;;;;;5032152;28;20244;-78
2021/07/11 12:20:29;;;;;;;1.37;0.60;;;21.30;99.90;;;;;;5017288;28;20170;-77
2021/07/11 12:22:55;;;;;;;1.43;0.90;;;21.20;99.90;;;;;;5031498;28;20513;-77
2021/07/11 12:25:25;;;;;;;0.80;0.70;;;21.10;99.90;;;;;;5032202;28;20224;-79
2021/07/11 12:28:03;;;;;;;1.10;0.90;;;21.10;99.90;;;;;;5031020;28;20681;-79
2021/07/11 12:30:47;;;;;;;1.40;1.10;;;21.00;99.90;;;;;;5027930;28;20177;-77
2021/07/11 12:33:28;;;;;;;1.10;1.00;;;21.00;99.90;;;;;;5013919;28;20205;-81
2021/07/11 12:35:58;;;;;;;1.57;1.30;;;20.90;99.90;;;;;;5028355;28;20209;-79
2021/07/11 12:38:38;;;;;;;2.00;0.97;;;20.90;99.90;;;;;;5032784;28;20171;-78
2021/07/11 12:41:07;;;;;;;0.90;0.90;;;20.80;99.90;;;;;;5029758;28;20985;-78
2021/07/11 12:43:44;;;;;;;1.33;0.97;;;20.70;99.90;;;;;;5030143;28;20178;-77
2021/07/11 12:46:11;;;;;;;1.73;0.90;;;20.60;99.90;;;;;;5032594;28;20233;-78
2021/07/11 12:48:48;;;;;;;1.10;0.90;;;20.50;99.90;;;;;;5030974;28;20201;-78
2021/07/11 12:51:32;;;;;;;2.53;0.90;;;20.50;99.90;;;;;;5030996;28;20181;-78
2021/07/11 12:54:08;;;;;;;1.30;0.90;;;20.50;99.90;;;;;;5033312;28;20166;-79
2021/07/11 12:56:34;;;;;;;2.20;0.87;;;20.70;99.90;;;;;;5030038;28;20854;-80
2021/07/11 12:59:05;;;;;;;1.30;0.60;;;20.70;99.90;;;;;;5030842;28;20261;-81
2021/07/11 13:01:31;;;;;;;1.13;0.70;;;20.80;99.90;;;;;;5015972;28;20166;-78